createdAt,value
2022-09-20T00:00:00.138Z,1000.51
2022-09-20T00:05:00.249Z,1000.51
2022-09-20T00:10:00.153Z,1000.48
2022-09-20T00:15:00.113Z,1000.59
2022-09-20T00:20:00.135Z,1000.54
2022-09-20T00:25:00.105Z,1000.48
2022-09-20T00:30:00.151Z,1000.52
2022-09-20T00:35:00.101Z,1000.64
2022-09-20T00:40:00.214Z,1000.65
2022-09-20T00:45:00.112Z,1000.67
2022-09-20T00:50:00.089Z,1000.75
2022-09-20T00:55:00.093Z,1000.63
2022-09-20T01:00:00.264Z,1000.79
2022-09-20T01:05:00.091Z,1000.77
2022-09-20T01:10:00.125Z,1000.76
2022-09-20T01:15:00.087Z,1000.74
2022-09-20T01:20:00.160Z,1000.82
2022-09-20T01:25:00.085Z,1000.76
2022-09-20T01:30:00.097Z,1000.68
2022-09-20T01:35:00.216Z,1000.77
2022-09-20T01:40:00.262Z,1000.74
2022-09-20T01:45:00.104Z,1000.81
2022-09-20T01:50:00.089Z,1000.81
2022-09-20T01:55:00.112Z,1000.92
2022-09-20T02:00:00.167Z,1000.8
2022-09-20T02:05:00.105Z,1000.86
2022-09-20T02:10:00.100Z,1000.95
2022-09-20T02:15:00.096Z,1000.94
2022-09-20T02:20:00.110Z,1000.98
2022-09-20T02:25:00.097Z,1000.97
2022-09-20T02:30:00.122Z,1001
2022-09-20T02:35:00.082Z,1000.96
2022-09-20T02:40:00.187Z,1000.97
2022-09-20T02:45:00.118Z,1000.97
2022-09-20T02:50:00.112Z,1000.96
2022-09-20T02:55:00.106Z,1000.94
2022-09-20T03:00:00.156Z,1000.96
2022-09-20T03:05:00.107Z,1000.98
2022-09-20T03:10:00.079Z,1001.04
2022-09-20T03:15:00.111Z,1001.05
2022-09-20T03:20:00.133Z,1001.07
2022-09-20T03:25:00.105Z,1001.09
2022-09-20T03:30:00.154Z,1000.6
2022-09-20T03:35:00.106Z,1000.5
2022-09-20T03:40:00.226Z,1000.58
2022-09-20T03:45:00.133Z,1000.61
2022-09-20T03:50:00.083Z,1000.57
2022-09-20T03:55:00.117Z,1000.6
2022-09-20T04:00:00.222Z,1000.58
2022-09-20T04:05:00.123Z,1000.61
2022-09-20T04:10:00.178Z,1000.67
2022-09-20T04:15:00.132Z,1000.63
2022-09-20T04:20:00.157Z,1000.66
2022-09-20T04:25:00.101Z,1000.78
2022-09-20T04:30:00.152Z,1000.73
2022-09-20T04:35:00.119Z,1000.79
2022-09-20T04:40:00.207Z,1000.87
2022-09-20T04:45:00.100Z,1000.94
2022-09-20T04:50:00.130Z,1000.93
2022-09-20T04:55:00.072Z,1001.02
2022-09-20T05:00:00.158Z,1001.01
2022-09-20T05:05:00.088Z,1001.02
2022-09-20T05:10:00.100Z,1001
2022-09-20T05:15:00.083Z,1001.11
2022-09-20T05:20:00.134Z,1001.11
2022-09-20T05:25:00.111Z,1001.25
2022-09-20T05:30:03.157Z,1001.23
2022-09-20T05:35:00.113Z,1001.29
2022-09-20T05:40:00.216Z,1001.28
2022-09-20T05:45:00.082Z,1001.39
2022-09-20T05:50:00.087Z,1001.38
2022-09-20T05:55:00.134Z,1001.38
2022-09-20T06:00:00.152Z,1001.42
2022-09-20T06:05:00.108Z,1001.46
2022-09-20T06:10:00.093Z,1001.49
2022-09-20T06:15:00.106Z,1001.45
2022-09-20T06:20:00.154Z,1001.58
2022-09-20T06:25:00.082Z,1001.56
2022-09-20T06:30:00.105Z,1001.62
2022-09-20T06:35:00.079Z,1001.59
2022-09-20T06:40:00.222Z,1001.65
2022-09-20T06:45:00.113Z,1001.66
2022-09-20T06:50:00.077Z,1001.7
2022-09-20T06:55:00.102Z,1001.74
2022-09-20T07:00:00.178Z,1001.74
2022-09-20T07:05:00.088Z,1001.88
2022-09-20T07:10:00.087Z,1001.87
2022-09-20T07:15:00.109Z,1001.96
2022-09-20T07:20:00.156Z,1001.96
2022-09-20T07:25:00.090Z,1002.03
2022-09-20T07:30:00.151Z,1002.01
2022-09-20T07:35:00.078Z,1002.06
2022-09-20T07:40:00.239Z,1002.09
2022-09-20T07:45:00.126Z,1002.13
2022-09-20T07:50:00.095Z,1002.23
2022-09-20T07:55:00.111Z,1002.21
2022-09-20T08:00:00.134Z,1002.32
2022-09-20T08:05:00.098Z,1002.28
2022-09-20T08:10:00.123Z,1002.45
2022-09-20T08:15:00.094Z,1002.48
2022-09-20T08:20:00.143Z,1002.44
2022-09-20T08:25:00.107Z,1002.55
2022-09-20T08:30:00.122Z,1002.55
2022-09-20T08:35:00.088Z,1002.54
2022-09-20T08:40:00.309Z,1002.55
2022-09-20T08:45:00.396Z,1002.54
2022-09-20T08:50:00.607Z,1002.54
2022-09-20T08:55:00.145Z,1002.64
2022-09-20T09:00:00.180Z,1002.59
2022-09-20T09:05:00.083Z,1002.65
2022-09-20T09:10:00.102Z,1002.62
2022-09-20T09:15:00.090Z,1002.84
2022-09-20T09:20:00.132Z,1002.8
2022-09-20T09:25:00.103Z,1002.79
2022-09-20T09:30:00.111Z,1002.92
2022-09-20T09:35:00.099Z,1002.88
2022-09-20T09:40:00.245Z,1002.89
2022-09-20T09:45:00.093Z,1002.95
2022-09-20T09:50:02.809Z,1003.02
2022-09-20T09:55:02.512Z,1002.87
2022-09-20T10:00:01.407Z,1002.88
2022-09-20T10:05:00.102Z,1002.87
2022-09-20T10:10:00.112Z,1002.89
2022-09-20T10:15:00.130Z,1002.92
2022-09-20T10:20:00.175Z,1002.94
2022-09-20T10:25:00.119Z,1002.95
2022-09-20T10:30:00.130Z,1002.96
2022-09-20T10:35:00.106Z,1002.88
2022-09-20T10:40:00.280Z,1002.82
2022-09-20T10:45:00.077Z,1002.86
2022-09-20T10:50:00.087Z,1002.91
2022-09-20T10:55:00.130Z,1002.9
2022-09-20T11:00:00.200Z,1002.96
2022-09-20T11:05:00.097Z,1002.99
2022-09-20T11:10:00.114Z,1002.95
2022-09-20T11:15:00.105Z,1003.07
2022-09-20T11:20:03.475Z,1003
2022-09-20T11:25:00.113Z,1003.02
2022-09-20T11:30:00.139Z,1003.03
2022-09-20T11:35:00.091Z,1003.05
2022-09-20T11:40:00.204Z,1003.04
2022-09-20T11:45:00.149Z,1002.98
2022-09-20T11:50:00.164Z,1003.02
2022-09-20T11:55:00.110Z,1003.13
2022-09-20T12:00:00.237Z,1003.03
2022-09-20T12:05:00.101Z,1003.12
2022-09-20T12:10:00.101Z,1003.01
2022-09-20T12:15:00.152Z,1002.94
2022-09-20T12:20:00.161Z,1002.97
2022-09-20T12:25:00.142Z,1002.94
2022-09-20T12:30:00.129Z,1002.9
2022-09-20T12:35:00.104Z,1002.76
2022-09-20T12:40:00.177Z,1002.78
2022-09-20T12:45:00.119Z,1002.77
2022-09-20T12:50:00.101Z,1002.83
2022-09-20T12:55:03.886Z,1002.75
2022-09-20T13:00:00.177Z,1002.76
2022-09-20T13:05:00.086Z,1002.65
2022-09-20T13:10:00.095Z,1002.72
2022-09-20T13:15:00.113Z,1002.69
2022-09-20T13:20:00.156Z,1002.74
2022-09-20T13:25:00.139Z,1002.8
2022-09-20T13:30:00.180Z,1002.77
2022-09-20T13:35:00.114Z,1002.85
2022-09-20T13:40:00.284Z,1002.86
2022-09-20T13:45:00.114Z,1002.9
2022-09-20T13:50:00.091Z,1002.85
2022-09-20T13:55:00.130Z,1002.87
2022-09-20T14:00:00.182Z,1002.87
2022-09-20T14:05:00.132Z,1002.93
2022-09-20T14:10:00.116Z,1002.9
2022-09-20T14:15:00.097Z,1002.97
2022-09-20T14:20:00.161Z,1002.96
2022-09-20T14:25:00.126Z,1002.98
2022-09-20T14:30:00.114Z,1002.97
2022-09-20T14:35:00.151Z,1002.98
2022-09-20T14:40:00.179Z,1003.02
2022-09-20T14:45:00.097Z,1003.04
2022-09-20T14:50:00.222Z,1003.13
2022-09-20T14:55:00.097Z,1003.22
2022-09-20T15:00:00.276Z,1003.13
2022-09-20T15:05:00.149Z,1003.2
2022-09-20T15:10:00.075Z,1003.32
2022-09-20T15:15:00.094Z,1003.25
2022-09-20T15:20:00.172Z,1003.35
2022-09-20T15:25:00.133Z,1003.19
2022-09-20T15:30:00.115Z,1003.25
2022-09-20T15:35:00.124Z,1003.24
2022-09-20T15:40:00.199Z,1003.26
2022-09-20T15:45:00.113Z,1003.24
2022-09-20T15:50:00.158Z,1003.24
2022-09-20T15:55:00.090Z,1003.43
2022-09-20T16:00:00.190Z,1003.4
2022-09-20T16:05:00.118Z,1003.43
2022-09-20T16:10:00.146Z,1003.44
2022-09-20T16:15:00.088Z,1003.46
2022-09-20T16:20:00.168Z,1003.51
2022-09-20T16:25:00.124Z,1003.49
2022-09-20T16:30:00.203Z,1003.68
2022-09-20T16:35:00.119Z,1003.63
2022-09-20T16:40:00.256Z,1003.64
2022-09-20T16:45:00.086Z,1003.71
2022-09-20T16:50:00.089Z,1003.88
2022-09-20T16:55:00.073Z,1003.98
2022-09-20T17:00:00.169Z,1004.04
2022-09-20T17:05:00.168Z,1004.05
2022-09-20T17:10:00.081Z,1004.11
2022-09-20T17:15:00.096Z,1004.1
2022-09-20T17:20:00.121Z,1004.24
2022-09-20T17:25:00.106Z,1004.34
2022-09-20T17:30:00.111Z,1004.31
2022-09-20T17:35:00.120Z,1004.45
2022-09-20T17:40:00.208Z,1004.53
2022-09-20T17:45:00.120Z,1004.67
2022-09-20T17:50:00.099Z,1004.61
2022-09-20T17:55:00.087Z,1004.68
2022-09-20T18:00:00.177Z,1004.75
2022-09-20T18:05:00.093Z,1004.8
2022-09-20T18:10:00.113Z,1004.82
2022-09-20T18:15:00.104Z,1004.81
2022-09-20T18:20:00.154Z,1004.9
2022-09-20T18:25:00.105Z,1004.91
2022-09-20T18:30:00.121Z,1004.97
2022-09-20T18:35:00.085Z,1005.11
2022-09-20T18:40:00.180Z,1005.13
2022-09-20T18:45:00.091Z,1005.09
2022-09-20T18:50:00.124Z,1005.17
2022-09-20T18:55:00.103Z,1005.19
2022-09-20T19:00:03.565Z,1005.32
2022-09-20T19:05:00.114Z,1005.34
2022-09-20T19:10:00.097Z,1005.33
2022-09-20T19:15:00.117Z,1005.37
2022-09-20T19:20:00.112Z,1005.44
2022-09-20T19:25:00.097Z,1005.43
2022-09-20T19:30:00.139Z,1005.5
2022-09-20T19:35:00.083Z,1005.64
2022-09-20T19:40:00.278Z,1005.64
2022-09-20T19:45:00.118Z,1005.59
2022-09-20T19:50:00.125Z,1005.72
2022-09-20T19:55:00.134Z,1005.8
2022-09-20T20:00:00.233Z,1005.76
2022-09-20T20:05:00.106Z,1005.76
2022-09-20T20:10:00.085Z,1005.74
2022-09-20T20:15:00.118Z,1005.71
2022-09-20T20:20:00.125Z,1005.87
2022-09-20T20:25:00.084Z,1005.96
2022-09-20T20:30:00.161Z,1006.44
2022-09-20T20:35:00.087Z,1006.55
2022-09-20T20:40:00.234Z,1006.53
2022-09-20T20:45:00.099Z,1006.55
2022-09-20T20:50:00.109Z,1006.57
2022-09-20T20:55:00.101Z,1006.59
2022-09-20T21:00:00.267Z,1006.66
2022-09-20T21:05:00.118Z,1006.67
2022-09-20T21:10:00.073Z,1006.72
2022-09-20T21:15:00.129Z,1006.75
2022-09-20T21:20:00.190Z,1006.71
2022-09-20T21:25:00.091Z,1006.67
2022-09-20T21:30:00.125Z,1006.78
2022-09-20T21:35:00.123Z,1006.84
2022-09-20T21:40:00.211Z,1006.86
2022-09-20T21:45:00.108Z,1006.87
2022-09-20T21:50:00.106Z,1006.89
2022-09-20T21:55:00.089Z,1006.89
2022-09-20T22:00:00.171Z,1006.9
2022-09-20T22:05:00.116Z,1007
2022-09-20T22:10:00.097Z,1006.93
2022-09-20T22:15:00.086Z,1006.97
2022-09-20T22:20:00.137Z,1006.95
2022-09-20T22:25:00.084Z,1006.96
2022-09-20T22:30:04.094Z,1006.96
2022-09-20T22:35:00.106Z,1007.02
2022-09-20T22:40:00.202Z,1007.06
2022-09-20T22:45:00.114Z,1007.16
2022-09-20T22:50:00.109Z,1007.21
2022-09-20T22:55:00.086Z,1007.15
2022-09-20T23:00:00.123Z,1007.12
2022-09-20T23:05:00.112Z,1007.27
2022-09-20T23:10:00.125Z,1007.23
2022-09-20T23:15:00.115Z,1007.29
2022-09-20T23:20:00.137Z,1007.37
2022-09-20T23:25:00.080Z,1007.36
2022-09-20T23:30:00.175Z,1007.4
2022-09-20T23:35:00.109Z,1007.42
2022-09-20T23:40:00.183Z,1007.32
2022-09-20T23:45:00.082Z,1007.28
2022-09-20T23:50:00.098Z,1007.33
2022-09-20T23:55:00.088Z,1007.32
